Time;durP1;ratioP1;P1;durP2;ratioP2;P2;SDS_P1;SDS_P2;PMS_P1;PMS_P2;Temp;Humidity;BMP_temperature;BMP_pressure;BME280_temperature;BME280_humidity;BME280_pressure;Samples;Min_cycle;Max_cycle;Signal;HPM_P1;HPM_P2
2024/01/21 00:02:01;;;;;;;1.10;1.00;;;3.80;65.30;;;;;;4960752;28;20464;-70
2024/01/21 00:04:27;;;;;;;0.90;0.70;;;3.70;65.90;;;;;;4959501;28;21063;-70
2024/01/21 00:06:54;;;;;;;1.00;0.83;;;3.80;64.40;;;;;;4957638;28;20460;-70
2024/01/21 00:09:21;;;;;;;0.90;0.70;;;3.80;64.10;;;;;;4957803;28;20955;-70
2024/01/21 00:11:48;;;;;;;3.43;1.07;;;3.80;63.70;;;;;;4957315;28;20453;-70
2024/01/21 00:14:14;;;;;;;0.90;0.63;;;3.80;63.90;;;;;;4959744;28;21088;-70
2024/01/21 00:16:41;;;;;;;1.33;1.13;;;3.90;64.00;;;;;;4951192;28;20459;-70
2024/01/21 00:19:09;;;;;;;1.27;1.17;;;3.90;62.80;;;;;;4961496;28;20467;-70
2024/01/21 00:21:36;;;;;;;1.07;0.93;;;4.00;62.80;;;;;;4956481;28;20442;-70
2024/01/21 00:24:03;;;;;;;1.90;1.53;;;4.00;61.60;;;;;;4959098;28;20444;-70
2024/01/21 00:26:29;;;;;;;1.00;0.80;;;4.00;61.40;;;;;;4946546;28;20469;-69
2024/01/21 00:29:00;;;;;;;1.27;0.93;;;4.10;59.90;;;;;;4958666;28;20430;-69
2024/01/21 00:31:27;;;;;;;2.03;1.00;;;4.20;59.90;;;;;;4957669;28;20458;-70
2024/01/21 00:33:53;;;;;;;1.10;0.97;;;4.20;60.00;;;;;;4962199;28;20447;-70
2024/01/21 00:36:22;;;;;;;1.63;1.37;;;4.20;60.00;;;;;;4963819;28;20469;-69
2024/01/21 00:38:48;;;;;;;1.27;1.17;;;4.20;60.20;;;;;;4959402;28;20482;-70
2024/01/21 00:41:16;;;;;;;3.83;3.53;;;4.10;60.90;;;;;;4960442;28;20455;-69
2024/01/21 00:43:43;;;;;;;1.00;0.87;;;4.10;60.00;;;;;;4947987;28;21394;-69
2024/01/21 00:46:10;;;;;;;1.00;0.90;;;4.10;59.90;;;;;;4961289;28;20462;-69
2024/01/21 00:48:36;;;;;;;1.00;0.80;;;4.10;60.50;;;;;;4955822;28;20471;-70
2024/01/21 00:51:03;;;;;;;0.90;0.70;;;4.10;61.80;;;;;;4964114;28;20934;-69
2024/01/21 00:53:31;;;;;;;1.57;1.43;;;4.10;61.40;;;;;;4960279;28;20440;-70
2024/01/21 00:55:58;;;;;;;1.10;0.90;;;4.00;62.70;;;;;;4963431;28;20444;-69
2024/01/21 00:58:25;;;;;;;0.90;0.60;;;4.00;62.40;;;;;;4963164;28;20442;-69
2024/01/21 01:00:51;;;;;;;1.20;0.80;;;4.00;62.30;;;;;;4961862;28;20425;-69
2024/01/21 01:03:18;;;;;;;1.50;0.97;;;4.00;61.80;;;;;;4959261;28;20463;-69
2024/01/21 01:05:45;;;;;;;1.00;0.80;;;4.00;62.50;;;;;;4964910;28;20465;-69
2024/01/21 01:08:12;;;;;;;0.90;0.80;;;4.00;62.50;;;;;;4962081;28;20442;-69
2024/01/21 01:10:40;;;;;;;1.63;1.03;;;4.00;62.90;;;;;;4960943;28;20441;-70
2024/01/21 01:13:06;;;;;;;0.90;0.60;;;4.00;62.20;;;;;;4964625;28;20451;-70
2024/01/21 01:15:33;;;;;;;1.03;0.83;;;4.00;63.20;;;;;;4963405;28;20799;-69
2024/01/21 01:18:00;;;;;;;1.20;1.00;;;4.00;63.20;;;;;;4959764;28;20487;-70
2024/01/21 01:20:26;;;;;;;1.03;0.90;;;4.00;62.70;;;;;;4954455;28;20453;-70
2024/01/21 01:22:53;;;;;;;0.97;0.77;;;4.00;62.80;;;;;;4961302;28;20456;-69
2024/01/21 01:25:21;;;;;;;1.03;0.93;;;4.00;62.50;;;;;;4945087;28;21131;-69
2024/01/21 01:27:49;;;;;;;0.90;0.73;;;4.00;62.30;;;;;;4957739;28;20433;-69
2024/01/21 01:30:15;;;;;;;1.67;1.57;;;4.10;62.50;;;;;;4959300;28;20434;-70
2024/01/21 01:32:42;;;;;;;3.83;1.40;;;4.10;61.50;;;;;;4959693;28;20534;-69
2024/01/21 01:35:09;;;;;;;1.20;1.10;;;4.10;62.50;;;;;;4958695;28;20475;-70
2024/01/21 01:37:36;;;;;;;1.20;1.00;;;4.20;61.80;;;;;;4957713;28;20521;-69
2024/01/21 01:40:03;;;;;;;2.80;1.33;;;4.10;61.70;;;;;;4956626;28;20456;-70
2024/01/21 01:42:30;;;;;;;1.10;0.80;;;4.10;61.20;;;;;;4958620;28;20456;-70
2024/01/21 01:44:58;;;;;;;2.73;1.00;;;4.20;61.00;;;;;;4957380;28;20455;-70
2024/01/21 01:47:25;;;;;;;1.00;0.87;;;4.20;61.00;;;;;;4957797;28;20470;-70
2024/01/21 01:49:55;;;;;;;0.97;0.67;;;4.20;60.50;;;;;;4960615;28;20462;-70
2024/01/21 01:52:22;;;;;;;1.00;0.80;;;4.20;60.50;;;;;;4953672;28;20467;-70
2024/01/21 01:54:49;;;;;;;1.87;1.37;;;4.20;60.50;;;;;;4956908;28;20479;-69
2024/01/21 01:57:17;;;;;;;0.97;0.77;;;4.30;60.70;;;;;;4956320;28;20433;-70
2024/01/21 01:59:43;;;;;;;1.30;0.90;;;4.30;60.30;;;;;;4960119;28;20475;-70
2024/01/21 02:02:12;;;;;;;1.40;1.00;;;4.30;60.80;;;;;;4964089;28;20443;-70
2024/01/21 02:04:39;;;;;;;1.00;0.90;;;4.20;62.40;;;;;;4956579;28;21175;-69
2024/01/21 02:07:06;;;;;;;1.47;1.17;;;4.20;61.50;;;;;;4960429;28;20490;-69
2024/01/21 02:09:32;;;;;;;2.83;2.20;;;4.20;61.50;;;;;;4961322;28;20475;-69
2024/01/21 02:11:59;;;;;;;1.57;1.47;;;4.30;61.50;;;;;;4958560;28;21163;-69
2024/01/21 02:14:26;;;;;;;1.30;1.00;;;4.30;61.80;;;;;;4965157;28;20540;-69
2024/01/21 02:16:53;;;;;;;1.30;1.20;;;4.30;61.70;;;;;;4955802;28;20515;-69
2024/01/21 02:19:27;;;;;;;1.97;1.63;;;4.40;61.00;;;;;;4960044;28;20459;-69
2024/01/21 02:21:54;;;;;;;1.20;0.90;;;4.40;60.90;;;;;;4964505;28;20480;-69
2024/01/21 02:24:28;;;;;;;1.63;1.17;;;4.40;60.50;;;;;;4959388;28;20505;-69
2024/01/21 02:26:55;;;;;;;1.40;0.90;;;4.50;60.50;;;;;;4960418;28;20491;-69
2024/01/21 02:29:21;;;;;;;1.23;1.00;;;4.50;60.30;;;;;;4961924;28;21170;-69
2024/01/21 02:31:48;;;;;;;1.50;1.10;;;4.50;60.10;;;;;;4952269;28;22943;-69
2024/01/21 02:34:15;;;;;;;2.07;1.00;;;4.60;60.00;;;;;;4964083;28;20436;-69
2024/01/21 02:36:43;;;;;;;1.77;1.37;;;4.50;60.20;;;;;;4962491;28;20451;-73
2024/01/21 02:39:10;;;;;;;1.63;1.30;;;4.40;60.30;;;;;;4964175;28;20473;-69
2024/01/21 02:41:38;;;;;;;2.40;1.50;;;4.50;60.70;;;;;;4954811;28;20518;-69
2024/01/21 02:44:05;;;;;;;1.63;1.03;;;4.40;60.20;;;;;;4959002;28;20457;-70
2024/01/21 02:46:31;;;;;;;2.60;1.93;;;4.40;60.10;;;;;;4963704;28;20996;-69
2024/01/21 02:48:58;;;;;;;1.30;1.17;;;4.50;60.90;;;;;;4956271;28;20448;-69
2024/01/21 02:51:25;;;;;;;1.43;1.20;;;4.50;60.10;;;;;;4963759;28;20442;-69
2024/01/21 02:53:52;;;;;;;1.07;0.90;;;4.50;60.50;;;;;;4961691;28;20470;-69
2024/01/21 02:56:22;;;;;;;1.30;1.10;;;4.40;61.40;;;;;;4964360;28;20457;-69
2024/01/21 02:58:51;;;;;;;1.93;1.10;;;4.50;61.50;;;;;;4955726;28;20426;-69
2024/01/21 03:01:18;;;;;;;2.03;1.20;;;4.60;61.60;;;;;;4957752;28;20443;-69
2024/01/21 03:03:45;;;;;;;2.90;2.03;;;4.60;60.90;;;;;;4962638;28;20453;-69
2024/01/21 03:06:12;;;;;;;0.90;0.67;;;4.60;61.40;;;;;;4960977;28;20465;-69
2024/01/21 03:08:39;;;;;;;5.27;2.40;;;4.60;61.20;;;;;;4958223;28;20467;-69
2024/01/21 03:11:06;;;;;;;2.37;1.20;;;4.60;61.50;;;;;;4960665;28;20496;-69
2024/01/21 03:13:32;;;;;;;3.47;1.90;;;4.60;61.70;;;;;;4958451;28;20445;-69
2024/01/21 03:16:01;;;;;;;3.00;1.17;;;4.40;62.10;;;;;;4959938;28;20458;-69
2024/01/21 03:18:27;;;;;;;1.83;1.73;;;4.40;62.50;;;;;;4958628;28;20477;-69
2024/01/21 03:20:54;;;;;;;1.83;1.73;;;4.40;63.50;;;;;;4962333;28;20945;-70
2024/01/21 03:23:21;;;;;;;1.00;0.80;;;4.30;63.70;;;;;;4960046;28;20430;-69
2024/01/21 03:25:47;;;;;;;1.37;1.27;;;4.40;64.40;;;;;;4961171;28;20479;-69
2024/01/21 03:28:14;;;;;;;3.10;1.77;;;4.30;64.10;;;;;;4963765;28;20442;-69
2024/01/21 03:30:41;;;;;;;2.47;1.23;;;4.40;64.30;;;;;;4963832;28;20433;-69
2024/01/21 03:33:09;;;;;;;2.00;1.70;;;4.30;64.80;;;;;;4961765;28;20791;-69
2024/01/21 03:35:36;;;;;;;2.70;1.33;;;4.40;64.60;;;;;;4966375;28;20486;-70
2024/01/21 03:38:03;;;;;;;1.00;0.90;;;4.40;64.50;;;;;;4964726;28;20467;-69
2024/01/21 03:40:29;;;;;;;1.47;1.30;;;4.30;65.10;;;;;;4961014;28;20498;-69
2024/01/21 03:42:56;;;;;;;2.10;1.33;;;4.20;65.20;;;;;;4961673;28;20455;-70
2024/01/21 03:45:23;;;;;;;2.43;1.53;;;4.10;65.60;;;;;;4958647;28;20923;-69
2024/01/21 03:47:50;;;;;;;3.63;1.57;;;4.20;65.90;;;;;;4958434;28;20462;-69
2024/01/21 03:50:20;;;;;;;1.53;1.30;;;4.10;66.70;;;;;;4959300;28;20464;-69
2024/01/21 03:52:47;;;;;;;3.13;1.10;;;4.10;66.30;;;;;;4969558;28;20805;-69
2024/01/21 03:55:14;;;;;;;1.07;0.97;;;4.10;66.50;;;;;;4961432;28;20453;-69
2024/01/21 03:57:40;;;;;;;1.57;1.17;;;4.00;66.30;;;;;;4963228;28;20438;-69
2024/01/21 04:00:08;;;;;;;1.30;1.20;;;4.00;66.60;;;;;;4959389;28;20440;-69
2024/01/21 04:02:35;;;;;;;3.90;2.30;;;4.00;67.10;;;;;;4967522;28;20429;-69
2024/01/21 04:05:02;;;;;;;1.10;0.90;;;4.00;66.80;;;;;;4962140;28;20461;-69
2024/01/21 04:07:31;;;;;;;1.13;1.03;;;4.00;67.10;;;;;;4961433;28;20458;-69
2024/01/21 04:09:57;;;;;;;1.70;1.57;;;3.80;67.80;;;;;;4962486;28;20889;-69
2024/01/21 04:12:24;;;;;;;3.53;1.90;;;3.90;67.30;;;;;;4960329;28;20429;-69
2024/01/21 04:14:51;;;;;;;1.83;1.10;;;3.90;67.70;;;;;;4959095;28;20453;-69
2024/01/21 04:17:18;;;;;;;1.60;1.20;;;3.80;68.40;;;;;;4959489;28;20452;-69
2024/01/21 04:19:45;;;;;;;4.73;2.07;;;3.80;69.10;;;;;;4961278;28;20476;-69
2024/01/21 04:22:12;;;;;;;9.30;2.27;;;3.90;68.50;;;;;;4962212;28;20527;-69
2024/01/21 04:24:41;;;;;;;1.77;1.40;;;3.90;68.50;;;;;;4964285;28;20486;-69
2024/01/21 04:27:07;;;;;;;2.87;1.27;;;3.90;69.50;;;;;;4963558;28;20491;-69
2024/01/21 04:29:34;;;;;;;0.90;0.80;;;3.90;68.10;;;;;;4957574;28;20529;-69
2024/01/21 04:32:01;;;;;;;2.40;1.50;;;3.80;67.90;;;;;;4962655;28;20901;-69
2024/01/21 04:34:27;;;;;;;1.30;1.10;;;3.60;67.70;;;;;;4952988;28;20544;-69
2024/01/21 04:36:54;;;;;;;1.17;1.07;;;3.70;68.70;;;;;;4959444;28;20433;-69
2024/01/21 04:39:22;;;;;;;3.43;1.77;;;3.70;68.00;;;;;;4959867;28;20915;-69
2024/01/21 04:41:50;;;;;;;2.57;2.30;;;3.70;68.50;;;;;;4962757;28;20433;-69
2024/01/21 04:44:16;;;;;;;2.07;1.57;;;3.70;68.70;;;;;;4959045;28;20441;-69
2024/01/21 04:46:43;;;;;;;0.90;0.80;;;3.80;68.50;;;;;;4957822;28;20459;-69
2024/01/21 04:49:10;;;;;;;5.23;1.13;;;3.90;68.50;;;;;;4958290;28;20435;-69
2024/01/21 04:51:37;;;;;;;1.63;1.30;;;3.90;68.40;;;;;;4957189;28;20419;-69
2024/01/21 04:54:04;;;;;;;1.60;1.50;;;3.70;68.50;;;;;;4959118;28;20449;-69
2024/01/21 04:56:31;;;;;;;5.03;1.80;;;3.80;68.50;;;;;;4966168;28;20454;-70
2024/01/21 04:58:59;;;;;;;3.37;1.97;;;3.80;69.30;;;;;;4960649;28;20462;-70
2024/01/21 05:01:26;;;;;;;3.93;1.40;;;3.80;68.60;;;;;;4962233;28;20438;-69
2024/01/21 05:03:53;;;;;;;1.63;1.53;;;3.80;69.10;;;;;;4958231;28;20468;-70
2024/01/21 05:06:20;;;;;;;3.43;2.03;;;3.80;68.40;;;;;;4954213;28;20967;-69
2024/01/21 05:08:47;;;;;;;1.20;1.00;;;3.80;68.60;;;;;;4964334;28;20451;-69
2024/01/21 05:11:14;;;;;;;1.30;1.20;;;3.80;68.70;;;;;;4964011;28;20470;-69
2024/01/21 05:13:40;;;;;;;1.60;1.30;;;3.70;68.60;;;;;;4961324;28;20496;-69
2024/01/21 05:16:08;;;;;;;1.10;1.00;;;3.70;68.20;;;;;;4959743;28;20482;-69
2024/01/21 05:18:37;;;;;;;1.00;0.80;;;3.70;68.70;;;;;;4959364;28;20631;-69
2024/01/21 05:21:05;;;;;;;1.07;0.90;;;3.80;69.00;;;;;;4962601;28;20802;-69
2024/01/21 05:23:33;;;;;;;4.73;1.17;;;3.80;68.50;;;;;;4958079;28;20463;-69
2024/01/21 05:25:59;;;;;;;1.50;1.10;;;3.80;68.60;;;;;;4957757;28;20497;-69
2024/01/21 05:28:26;;;;;;;1.20;1.10;;;3.70;68.60;;;;;;4960262;28;20461;-69
2024/01/21 05:30:53;;;;;;;2.23;1.27;;;3.70;68.90;;;;;;4962872;28;20965;-70
2024/01/21 05:33:21;;;;;;;2.10;1.00;;;3.60;69.00;;;;;;4950742;28;21118;-69
2024/01/21 05:35:48;;;;;;;5.73;1.33;;;3.60;69.10;;;;;;4958950;28;20437;-69
2024/01/21 05:38:14;;;;;;;11.13;6.97;;;3.60;69.70;;;;;;4955985;28;20438;-69
2024/01/21 05:40:41;;;;;;;2.30;1.47;;;3.60;70.00;;;;;;4952873;28;20446;-70
2024/01/21 05:43:08;;;;;;;2.67;2.23;;;3.60;70.20;;;;;;4958211;28;20445;-69
2024/01/21 05:45:34;;;;;;;2.63;1.10;;;3.60;70.50;;;;;;4957574;28;20550;-70
2024/01/21 05:48:01;;;;;;;1.03;0.80;;;3.50;71.10;;;;;;4962907;28;20478;-69
2024/01/21 05:50:29;;;;;;;2.47;1.77;;;3.40;71.30;;;;;;4959444;28;20455;-69
2024/01/21 05:52:56;;;;;;;1.30;1.20;;;3.30;71.30;;;;;;4960636;28;20425;-70
2024/01/21 05:55:23;;;;;;;2.97;2.50;;;3.30;72.00;;;;;;4958357;28;20468;-69
2024/01/21 05:57:50;;;;;;;4.43;2.03;;;3.40;72.30;;;;;;4958311;28;20444;-69
2024/01/21 06:00:17;;;;;;;2.40;2.03;;;3.40;72.40;;;;;;4956821;28;20446;-70
2024/01/21 06:02:45;;;;;;;2.60;1.80;;;3.40;72.60;;;;;;4957182;28;20470;-70
2024/01/21 06:05:12;;;;;;;2.20;1.40;;;3.40;72.00;;;;;;4956659;28;20458;-70
2024/01/21 06:07:41;;;;;;;1.33;1.00;;;3.40;72.20;;;;;;4961026;28;20460;-69
2024/01/21 06:10:08;;;;;;;1.37;0.93;;;3.40;72.50;;;;;;4961061;28;20438;-70
2024/01/21 06:12:35;;;;;;;1.07;0.97;;;3.30;72.10;;;;;;4960675;28;20454;-69
2024/01/21 06:15:01;;;;;;;2.60;1.53;;;3.40;72.20;;;;;;4957501;28;20475;-69
2024/01/21 06:17:28;;;;;;;1.57;1.10;;;3.40;72.40;;;;;;4955410;28;20426;-70
2024/01/21 06:19:55;;;;;;;1.73;1.57;;;3.40;72.60;;;;;;4960414;28;20533;-69
2024/01/21 06:22:22;;;;;;;1.77;1.30;;;3.40;73.30;;;;;;4960721;28;21041;-69
2024/01/21 06:24:50;;;;;;;1.50;1.37;;;3.40;74.10;;;;;;4956805;28;20973;-69
2024/01/21 06:27:16;;;;;;;2.07;1.33;;;3.40;73.10;;;;;;4955884;28;20842;-70
2024/01/21 06:29:45;;;;;;;1.83;1.47;;;3.40;73.30;;;;;;4961152;28;20474;-69
2024/01/21 06:32:12;;;;;;;22.33;1.83;;;3.40;73.30;;;;;;4959373;28;20458;-69
2024/01/21 06:34:38;;;;;;;1.40;1.20;;;3.30;73.70;;;;;;4957644;28;20458;-69
2024/01/21 06:37:05;;;;;;;3.53;1.33;;;3.40;73.80;;;;;;4958128;28;20823;-69
2024/01/21 06:39:32;;;;;;;1.43;1.33;;;3.40;74.00;;;;;;4961061;28;20419;-69
2024/01/21 06:42:02;;;;;;;3.63;1.63;;;3.40;74.40;;;;;;4957546;28;20426;-69
2024/01/21 06:44:29;;;;;;;2.17;1.53;;;3.40;74.50;;;;;;4958869;28;20483;-70
2024/01/21 06:46:55;;;;;;;2.40;1.40;;;3.40;74.60;;;;;;4959140;28;20455;-69
2024/01/21 06:49:22;;;;;;;1.73;1.63;;;3.30;75.10;;;;;;4967808;28;21112;-69
2024/01/21 06:51:54;;;;;;;1.57;1.07;;;3.30;75.80;;;;;;4967967;28;20437;-69
2024/01/21 06:54:20;;;;;;;4.40;1.50;;;3.30;76.50;;;;;;4967851;28;20537;-69
2024/01/21 06:56:47;;;;;;;3.10;1.70;;;3.30;76.60;;;;;;4968473;28;20468;-69
2024/01/21 06:59:16;;;;;;;1.97;1.20;;;3.30;77.50;;;;;;4960956;28;20485;-69
2024/01/21 07:01:43;;;;;;;2.10;1.73;;;3.30;78.00;;;;;;4956177;28;20502;-69
2024/01/21 07:04:10;;;;;;;2.97;2.60;;;3.30;78.40;;;;;;4940846;28;20471;-68
2024/01/21 07:06:36;;;;;;;1.70;1.43;;;3.20;79.00;;;;;;4969367;28;20942;-69
2024/01/21 07:09:04;;;;;;;1.77;1.60;;;3.20;79.30;;;;;;4961778;28;20461;-69
2024/01/21 07:11:35;;;;;;;1.83;1.10;;;3.20;79.50;;;;;;4964874;28;20447;-69
2024/01/21 07:14:02;;;;;;;3.47;1.77;;;3.20;79.90;;;;;;4967027;28;20449;-69
2024/01/21 07:16:30;;;;;;;2.03;1.20;;;3.20;80.30;;;;;;4968224;28;20525;-70
2024/01/21 07:18:56;;;;;;;1.57;1.27;;;3.20;80.70;;;;;;4970379;28;20938;-68
2024/01/21 07:21:23;;;;;;;2.60;1.97;;;3.30;80.70;;;;;;4962289;28;20447;-69
2024/01/21 07:23:50;;;;;;;3.10;1.60;;;3.30;81.00;;;;;;4960219;28;20471;-69
2024/01/21 07:26:18;;;;;;;3.30;2.90;;;3.40;81.40;;;;;;4958582;28;20482;-69
2024/01/21 07:28:44;;;;;;;1.57;1.47;;;3.50;81.40;;;;;;4959577;28;20468;-69
2024/01/21 07:31:11;;;;;;;1.40;1.30;;;3.40;81.10;;;;;;4963495;28;20432;-69
2024/01/21 07:33:39;;;;;;;2.20;1.20;;;3.40;82.00;;;;;;4961568;28;20454;-69
2024/01/21 07:36:06;;;;;;;1.90;1.60;;;3.40;81.80;;;;;;4963624;28;20458;-69
2024/01/21 07:38:33;;;;;;;4.40;1.67;;;3.30;82.10;;;;;;4958634;28;20466;-69
2024/01/21 07:41:00;;;;;;;2.80;1.30;;;3.30;82.50;;;;;;4961168;28;20918;-69
2024/01/21 07:43:27;;;;;;;3.63;2.70;;;3.30;82.80;;;;;;4955657;28;20468;-68
2024/01/21 07:45:54;;;;;;;2.80;2.30;;;3.20;83.00;;;;;;4957990;28;20454;-68
2024/01/21 07:48:21;;;;;;;5.13;4.63;;;3.30;83.60;;;;;;4960165;28;20472;-69
2024/01/21 07:50:49;;;;;;;2.30;2.10;;;3.40;83.80;;;;;;4965863;28;20497;-69
2024/01/21 07:53:18;;;;;;;2.90;1.73;;;3.30;83.50;;;;;;4964488;28;20426;-69
2024/01/21 07:55:45;;;;;;;3.23;2.00;;;3.30;84.30;;;;;;4961766;28;20469;-69
2024/01/21 07:58:15;;;;;;;3.30;2.10;;;3.30;84.70;;;;;;4966287;28;20672;-69
2024/01/21 08:00:42;;;;;;;3.03;1.97;;;3.30;84.80;;;;;;4964265;28;20469;-69
2024/01/21 08:03:08;;;;;;;2.17;1.27;;;3.20;85.30;;;;;;4962402;28;20859;-69
2024/01/21 08:05:35;;;;;;;6.43;2.73;;;3.30;85.80;;;;;;4955360;28;20462;-69
2024/01/21 08:08:03;;;;;;;2.83;1.40;;;3.20;85.80;;;;;;4964691;28;21174;-69
2024/01/21 08:10:30;;;;;;;5.10;2.00;;;3.20;86.30;;;;;;4959294;28;20459;-69
2024/01/21 08:12:57;;;;;;;2.37;2.17;;;3.20;86.20;;;;;;4961094;28;20985;-70
2024/01/21 08:15:23;;;;;;;6.40;2.60;;;3.10;86.90;;;;;;4963207;28;21041;-69
2024/01/21 08:17:50;;;;;;;2.60;1.43;;;3.10;87.00;;;;;;4957737;28;20451;-69
2024/01/21 08:20:17;;;;;;;3.50;1.70;;;3.00;86.80;;;;;;4961971;28;20819;-69
2024/01/21 08:22:44;;;;;;;3.47;2.80;;;3.10;87.40;;;;;;4960353;28;20432;-70
2024/01/21 08:25:12;;;;;;;2.23;1.40;;;3.20;86.10;;;;;;4963869;28;21223;-70
2024/01/21 08:27:39;;;;;;;2.03;1.87;;;3.30;86.80;;;;;;4960717;28;20448;-70
2024/01/21 08:30:08;;;;;;;2.33;1.70;;;3.40;85.40;;;;;;4959306;28;20449;-68
2024/01/21 08:32:35;;;;;;;4.57;2.37;;;3.30;85.30;;;;;;4959688;28;20442;-68
2024/01/21 08:35:02;;;;;;;3.50;1.70;;;3.40;85.80;;;;;;4960078;28;21160;-69
2024/01/21 08:37:29;;;;;;;2.33;1.40;;;3.50;85.30;;;;;;4966622;28;20437;-69
2024/01/21 08:39:56;;;;;;;1.63;1.17;;;3.40;85.30;;;;;;4957744;28;20441;-69
2024/01/21 08:42:24;;;;;;;0.90;0.80;;;3.50;85.00;;;;;;4960223;28;20458;-69
2024/01/21 08:44:51;;;;;;;3.27;2.00;;;3.50;84.80;;;;;;4959077;28;20453;-69
2024/01/21 08:47:18;;;;;;;1.23;1.10;;;3.60;85.50;;;;;;4960166;28;20436;-69
2024/01/21 08:49:45;;;;;;;20.70;3.10;;;3.60;85.00;;;;;;4963960;28;21042;-68
2024/01/21 08:52:12;;;;;;;4.80;3.00;;;3.60;84.90;;;;;;4958407;28;20445;-69
2024/01/21 08:54:38;;;;;;;3.83;2.13;;;3.70;85.10;;;;;;4962930;28;20485;-68
2024/01/21 08:57:05;;;;;;;3.83;1.60;;;3.80;85.00;;;;;;4959823;28;20421;-68
2024/01/21 08:59:33;;;;;;;3.13;2.07;;;3.90;84.70;;;;;;4961997;28;20468;-68
2024/01/21 09:02:00;;;;;;;4.63;4.20;;;4.00;83.80;;;;;;4960162;28;20445;-68
2024/01/21 09:04:27;;;;;;;3.20;2.27;;;4.00;83.60;;;;;;4960627;28;20454;-68
2024/01/21 09:06:54;;;;;;;5.53;3.63;;;4.10;83.60;;;;;;4955842;28;20935;-69
2024/01/21 09:09:20;;;;;;;2.20;2.00;;;4.00;83.80;;;;;;4957678;28;21141;-68
2024/01/21 09:11:48;;;;;;;3.20;1.60;;;4.10;83.60;;;;;;4954046;28;20497;-68
2024/01/21 09:14:14;;;;;;;1.93;1.50;;;4.10;84.10;;;;;;4959045;28;20477;-68
2024/01/21 09:16:42;;;;;;;4.17;2.33;;;4.20;83.80;;;;;;4954359;28;20460;-69
2024/01/21 09:19:10;;;;;;;3.83;2.47;;;4.40;85.20;;;;;;4952315;28;20524;-68
2024/01/21 09:21:37;;;;;;;9.43;2.73;;;4.50;83.40;;;;;;4953095;28;20650;-69
2024/01/21 09:24:05;;;;;;;2.90;1.90;;;4.60;82.80;;;;;;4951708;28;20437;-68
2024/01/21 09:26:32;;;;;;;4.47;2.87;;;4.70;83.00;;;;;;4945170;28;20817;-69
2024/01/21 09:28:59;;;;;;;4.47;2.80;;;4.70;83.40;;;;;;4952323;28;20978;-69
2024/01/21 09:31:25;;;;;;;3.93;2.90;;;4.80;83.20;;;;;;4951118;28;20437;-69
2024/01/21 09:33:56;;;;;;;1.93;1.77;;;4.90;83.50;;;;;;4953490;28;20457;-69
2024/01/21 09:36:23;;;;;;;3.40;2.53;;;5.10;83.00;;;;;;4951840;28;20464;-68
2024/01/21 09:38:50;;;;;;;2.60;2.10;;;5.10;82.90;;;;;;4954447;28;20595;-69
2024/01/21 09:41:24;;;;;;;7.03;3.47;;;5.20;82.90;;;;;;4957765;28;20520;-68
2024/01/21 09:43:51;;;;;;;3.20;2.23;;;5.50;83.70;;;;;;4953327;28;20436;-69
2024/01/21 09:46:18;;;;;;;2.00;1.80;;;5.70;82.80;;;;;;4952203;28;20482;-68
2024/01/21 09:48:45;;;;;;;3.53;2.70;;;5.50;82.40;;;;;;4959945;28;20470;-69
2024/01/21 09:51:13;;;;;;;2.20;1.90;;;5.50;82.80;;;;;;4956426;28;20517;-69
2024/01/21 09:53:40;;;;;;;4.33;2.03;;;5.50;82.70;;;;;;4960767;28;20433;-69
2024/01/21 09:56:08;;;;;;;1.57;1.47;;;5.40;82.80;;;;;;4952209;28;20459;-69
2024/01/21 09:58:41;;;;;;;6.83;2.10;;;5.30;83.10;;;;;;4957802;28;20459;-68
2024/01/21 10:01:08;;;;;;;2.80;2.50;;;5.10;83.60;;;;;;4957606;28;21131;-69
2024/01/21 10:03:35;;;;;;;5.93;2.30;;;5.00;84.50;;;;;;4958064;28;20454;-69
2024/01/21 10:06:02;;;;;;;7.77;3.40;;;5.00;84.40;;;;;;4960248;28;20850;-68
2024/01/21 10:08:31;;;;;;;2.43;2.20;;;5.00;84.90;;;;;;4957634;28;20490;-69
2024/01/21 10:11:02;;;;;;;3.80;3.10;;;5.00;85.70;;;;;;4953939;28;20471;-69
2024/01/21 10:13:29;;;;;;;2.53;2.13;;;5.00;85.40;;;;;;4963687;28;20919;-69
2024/01/21 10:15:57;;;;;;;1.70;1.60;;;5.00;86.40;;;;;;4959464;28;20483;-69
2024/01/21 10:18:24;;;;;;;5.30;2.47;;;5.10;87.30;;;;;;4952397;28;20437;-69
2024/01/21 10:20:52;;;;;;;5.73;2.77;;;5.10;88.50;;;;;;4954762;28;20462;-68
2024/01/21 10:23:18;;;;;;;4.53;2.80;;;5.20;88.80;;;;;;4960722;28;20466;-68
2024/01/21 10:25:47;;;;;;;5.30;2.10;;;5.20;89.50;;;;;;4955776;28;20453;-68
2024/01/21 10:28:15;;;;;;;3.93;2.67;;;5.40;89.80;;;;;;4962093;28;20438;-68
2024/01/21 10:30:43;;;;;;;4.43;1.87;;;5.60;90.10;;;;;;4965068;28;20466;-69
2024/01/21 10:33:10;;;;;;;6.90;2.73;;;5.80;90.50;;;;;;4964940;28;20455;-69
2024/01/21 10:35:37;;;;;;;4.20;2.40;;;5.90;91.10;;;;;;4963237;28;21002;-69
2024/01/21 10:38:05;;;;;;;3.20;2.47;;;5.90;91.40;;;;;;4960730;28;20442;-70
2024/01/21 10:40:32;;;;;;;3.70;1.80;;;6.00;91.50;;;;;;4965963;28;20425;-69
2024/01/21 10:43:01;;;;;;;3.10;2.13;;;6.00;92.00;;;;;;4963180;28;20441;-69
2024/01/21 10:45:28;;;;;;;5.23;3.23;;;5.90;92.40;;;;;;4963503;28;20461;-69
2024/01/21 10:47:56;;;;;;;3.40;2.20;;;5.90;92.80;;;;;;4957439;28;20445;-69
2024/01/21 10:50:24;;;;;;;1.90;1.80;;;5.90;93.00;;;;;;4959717;28;21016;-68
2024/01/21 10:52:51;;;;;;;6.30;2.60;;;5.90;93.10;;;;;;4962462;28;20448;-69
2024/01/21 10:55:18;;;;;;;7.60;4.27;;;5.80;93.60;;;;;;4963384;28;20606;-69
2024/01/21 10:57:47;;;;;;;4.50;2.90;;;6.00;93.80;;;;;;4959681;28;20458;-69
2024/01/21 11:00:16;;;;;;;2.57;1.53;;;6.00;94.00;;;;;;4955963;28;20471;-69
2024/01/21 11:02:42;;;;;;;5.90;2.80;;;6.00;94.40;;;;;;4962481;28;20481;-69
2024/01/21 11:05:10;;;;;;;1.93;1.40;;;5.90;95.40;;;;;;4966579;28;20471;-69
2024/01/21 11:07:38;;;;;;;4.53;2.10;;;5.90;96.30;;;;;;4963417;28;20436;-69
2024/01/21 11:10:06;;;;;;;1.37;1.27;;;5.80;97.10;;;;;;4966136;28;20833;-69
2024/01/21 11:12:34;;;;;;;4.03;2.33;;;5.90;98.20;;;;;;4960308;28;20466;-69
2024/01/21 11:15:29;;;;;;;4.67;2.60;;;6.00;98.90;;;;;;4959187;28;20987;-69
2024/01/21 11:18:09;;;;;;;2.23;1.83;;;6.10;99.90;;;;;;4956035;28;20470;-69
2024/01/21 11:20:36;;;;;;;4.80;3.83;;;6.10;99.90;;;;;;4962040;28;20463;-69
2024/01/21 11:23:14;;;;;;;15.30;3.20;;;6.00;99.90;;;;;;4958370;28;20443;-69
2024/01/21 11:25:50;;;;;;;3.63;2.53;;;5.80;99.90;;;;;;4961574;28;26000;-69
2024/01/21 11:28:28;;;;;;;4.60;3.37;;;5.70;99.90;;;;;;4957456;28;20861;-69
2024/01/21 11:31:02;;;;;;;3.10;1.93;;;5.70;99.90;;;;;;4958179;28;20515;-69
2024/01/21 11:33:30;;;;;;;1.60;1.50;;;5.60;99.90;;;;;;4958500;28;20946;-69
2024/01/21 11:35:58;;;;;;;3.90;1.90;;;5.60;99.90;;;;;;4958593;28;20465;-69
2024/01/21 11:38:25;;;;;;;1.50;1.40;;;5.60;99.90;;;;;;4961161;28;20442;-69
2024/01/21 11:41:03;;;;;;;6.20;4.30;;;5.60;99.90;;;;;;4959408;28;20457;-69
2024/01/21 11:43:31;;;;;;;7.27;2.53;;;5.70;99.90;;;;;;4956413;28;20508;-68
2024/01/21 11:45:58;;;;;;;3.50;2.23;;;5.90;99.90;;;;;;4959774;28;20951;-68
2024/01/21 11:48:31;;;;;;;4.40;2.23;;;5.60;99.90;;;;;;4963157;28;20469;-69
2024/01/21 11:50:58;;;;;;;5.67;3.27;;;5.50;99.90;;;;;;4967402;28;20474;-69
2024/01/21 11:53:25;;;;;;;3.83;1.93;;;5.50;99.90;;;;;;4966594;28;20430;-68
2024/01/21 11:55:52;;;;;;;2.37;2.20;;;5.50;99.90;;;;;;4954804;28;20479;-69
2024/01/21 11:58:19;;;;;;;5.23;2.00;;;5.50;99.90;;;;;;4963810;28;20437;-69
2024/01/21 12:00:46;;;;;;;2.03;1.80;;;5.50;99.90;;;;;;4966909;28;20491;-70
2024/01/21 12:03:13;;;;;;;2.40;2.20;;;5.70;99.90;;;;;;4955023;28;20459;-69
2024/01/21 12:05:42;;;;;;;9.70;4.30;;;5.80;99.90;;;;;;4957452;28;20457;-70
2024/01/21 12:08:10;;;;;;;3.13;2.83;;;5.80;99.90;;;;;;4955051;28;20459;-69
2024/01/21 12:10:38;;;;;;;6.63;3.20;;;5.90;99.90;;;;;;4959400;28;20570;-69
2024/01/21 12:13:07;;;;;;;3.67;2.57;;;5.90;99.90;;;;;;4956922;28;20445;-69
2024/01/21 12:15:35;;;;;;;2.70;2.10;;;6.00;99.90;;;;;;4960267;28;20963;-69
2024/01/21 12:18:03;;;;;;;1.60;1.50;;;5.90;99.90;;;;;;4962352;28;20528;-69
2024/01/21 12:20:30;;;;;;;4.33;2.97;;;5.70;99.90;;;;;;4955096;28;20429;-69
2024/01/21 12:22:58;;;;;;;4.63;2.57;;;5.60;99.90;;;;;;4954436;28;20443;-69
2024/01/21 12:25:25;;;;;;;2.83;1.50;;;5.50;99.90;;;;;;4953500;28;20461;-69
2024/01/21 12:27:57;;;;;;;4.20;2.50;;;5.60;99.90;;;;;;4959388;28;20455;-70
2024/01/21 12:30:26;;;;;;;2.20;2.00;;;5.60;99.90;;;;;;4959460;28;21008;-70
2024/01/21 12:32:53;;;;;;;5.63;2.00;;;5.60;99.90;;;;;;4958674;28;20447;-69
2024/01/21 12:35:20;;;;;;;2.60;2.10;;;5.50;99.90;;;;;;4958408;28;20461;-69
2024/01/21 12:37:49;;;;;;;2.20;2.00;;;5.50;99.90;;;;;;4960201;28;20501;-69
2024/01/21 12:40:17;;;;;;;17.17;3.70;;;5.60;99.90;;;;;;4960391;28;20933;-68
2024/01/21 12:42:44;;;;;;;6.13;3.93;;;5.70;99.90;;;;;;4953205;28;20475;-68
2024/01/21 12:45:12;;;;;;;8.37;7.53;;;5.60;99.90;;;;;;4965488;28;20545;-69
2024/01/21 12:47:39;;;;;;;5.10;1.93;;;5.50;99.90;;;;;;4962927;28;20838;-68
2024/01/21 12:50:08;;;;;;;5.67;4.00;;;5.40;99.90;;;;;;4947371;28;20466;-69
2024/01/21 12:52:35;;;;;;;3.77;2.50;;;5.30;99.90;;;;;;4954024;28;20483;-69
2024/01/21 12:55:02;;;;;;;9.70;3.67;;;5.30;99.90;;;;;;4963995;28;20458;-68
2024/01/21 12:57:30;;;;;;;5.40;4.30;;;5.20;99.90;;;;;;4967977;28;20449;-69
2024/01/21 12:59:57;;;;;;;7.23;3.47;;;5.40;99.90;;;;;;4948548;28;20467;-69